createdAt,value
2022-11-28T00:00:41.194Z,89.03
2022-11-28T00:01:40.839Z,88.62
2022-11-28T00:02:40.905Z,89.03
2022-11-28T00:03:40.792Z,88.41
2022-11-28T00:04:41.128Z,89.03
2022-11-28T00:05:46.769Z,89.34
2022-11-28T00:06:40.766Z,88.82
2022-11-28T00:07:41.095Z,89.13
2022-11-28T00:08:40.765Z,88.62
2022-11-28T00:09:40.775Z,88.20
2022-11-28T00:10:40.756Z,88.31
2022-11-28T00:11:40.704Z,88.62
2022-11-28T00:12:40.686Z,88.31
2022-11-28T00:13:40.665Z,87.90
2022-11-28T00:14:41.308Z,87.90
2022-11-28T00:15:40.683Z,88.31
2022-11-28T00:16:40.841Z,87.99
2022-11-28T00:17:40.626Z,87.99
2022-11-28T00:18:40.611Z,88.10
2022-11-28T00:19:40.628Z,87.44
2022-11-28T00:20:40.587Z,87.59
2022-11-28T00:21:40.850Z,87.79
2022-11-28T00:22:40.605Z,87.85
2022-11-28T00:23:40.565Z,87.44
2022-11-28T00:24:41.013Z,87.75
2022-11-28T00:25:40.555Z,87.96
2022-11-28T00:26:40.584Z,87.75
2022-11-28T00:27:40.509Z,87.65
2022-11-28T00:28:40.809Z,87.96
2022-11-28T00:29:40.533Z,87.75
2022-11-28T00:30:40.482Z,88.10
2022-11-28T00:31:40.568Z,88.20
2022-11-28T00:32:40.459Z,88.41
2022-11-28T00:33:40.444Z,88.31
2022-11-28T00:34:40.798Z,87.90
2022-11-28T00:35:40.717Z,88.31
2022-11-28T00:36:40.422Z,87.96
2022-11-28T00:37:40.405Z,87.96
2022-11-28T00:38:40.427Z,88.20
2022-11-28T00:39:40.396Z,88.17
2022-11-28T00:40:40.395Z,87.79
2022-11-28T00:41:40.366Z,88.06
2022-11-28T00:42:40.635Z,88.26
2022-11-28T00:43:40.340Z,87.85
2022-11-28T00:44:40.722Z,88.26
2022-11-28T00:45:40.374Z,87.24
2022-11-28T00:46:40.361Z,87.54
2022-11-28T00:47:40.292Z,87.34
2022-11-28T00:48:40.291Z,87.34
2022-11-28T00:49:40.563Z,87.65
2022-11-28T00:50:40.289Z,88.26
2022-11-28T00:51:40.257Z,88.06
2022-11-28T00:52:40.314Z,88.06
2022-11-28T00:53:40.265Z,88.06
2022-11-28T00:54:40.590Z,87.85
2022-11-28T00:55:40.242Z,88.06
2022-11-28T00:56:40.527Z,87.96
2022-11-28T00:57:40.203Z,87.85
2022-11-28T00:58:40.216Z,88.17
2022-11-28T00:59:40.197Z,87.96
2022-11-28T01:00:40.225Z,88.37
2022-11-28T01:01:40.323Z,87.96
2022-11-28T01:02:40.210Z,87.65
2022-11-28T01:03:40.415Z,87.54
2022-11-28T01:04:40.581Z,87.65
2022-11-28T01:05:40.118Z,88.06
2022-11-28T01:06:40.106Z,87.75
2022-11-28T01:07:40.136Z,88.06
2022-11-28T01:08:40.066Z,88.26
2022-11-28T01:09:40.056Z,88.68
2022-11-28T01:10:40.387Z,88.57
2022-11-28T01:11:40.058Z,88.78
2022-11-28T01:12:40.026Z,88.57
2022-11-28T01:13:40.025Z,88.37
2022-11-28T01:14:40.226Z,88.89
2022-11-28T01:15:39.999Z,88.68
2022-11-28T01:16:40.094Z,88.89
2022-11-28T01:17:40.264Z,88.78
2022-11-28T01:18:39.976Z,88.89
2022-11-28T01:19:39.982Z,88.78
2022-11-28T01:20:39.944Z,88.89
2022-11-28T01:21:39.956Z,88.57
2022-11-28T01:22:40.024Z,88.78
2022-11-28T01:23:39.924Z,88.78
2022-11-28T01:24:40.617Z,88.26
2022-11-28T01:25:39.914Z,88.26
2022-11-28T01:26:39.902Z,88.26
2022-11-28T01:27:39.884Z,88.68
2022-11-28T01:28:39.913Z,88.37
2022-11-28T01:29:39.853Z,88.17
2022-11-28T01:30:39.858Z,88.47
2022-11-28T01:31:40.175Z,87.96
2022-11-28T01:32:39.827Z,88.37
2022-11-28T01:33:39.814Z,88.47
2022-11-28T01:34:40.120Z,88.06
2022-11-28T01:35:39.818Z,88.17
2022-11-28T01:36:39.811Z,88.26
2022-11-28T01:37:39.766Z,88.26
2022-11-28T01:38:40.036Z,88.57
2022-11-28T01:39:39.763Z,88.57
2022-11-28T01:40:39.794Z,88.99
2022-11-28T01:41:39.781Z,88.89
2022-11-28T01:42:39.743Z,89.40
2022-11-28T01:43:39.711Z,89.50
2022-11-28T01:44:40.045Z,89.71
2022-11-28T01:45:39.983Z,89.61
2022-11-28T01:46:39.780Z,90.01
2022-11-28T01:47:39.738Z,89.81
2022-11-28T01:48:39.654Z,90.01
2022-11-28T01:49:39.695Z,90.22
2022-11-28T01:50:39.670Z,90.33
2022-11-28T01:51:39.639Z,90.64
2022-11-28T01:52:39.916Z,90.57
2022-11-28T01:53:39.609Z,90.43
2022-11-28T01:54:39.737Z,90.67
2022-11-28T01:55:39.580Z,90.53
2022-11-28T01:56:39.588Z,90.47
2022-11-28T01:57:39.553Z,90.73
2022-11-28T01:58:39.603Z,90.37
2022-11-28T01:59:39.881Z,90.53
2022-11-28T02:00:39.645Z,90.78
2022-11-28T02:01:39.591Z,90.67
2022-11-28T02:02:39.519Z,91.09
2022-11-28T02:03:39.483Z,90.57
2022-11-28T02:04:39.622Z,90.99
2022-11-28T02:05:39.490Z,91.09
2022-11-28T02:06:39.746Z,91.30
2022-11-28T02:07:39.531Z,91.50
2022-11-28T02:08:39.446Z,91.81
2022-11-28T02:09:39.428Z,92.12
2022-11-28T02:10:39.475Z,92.22
2022-11-28T02:11:39.431Z,92.33
2022-11-28T02:12:39.410Z,93.15
2022-11-28T02:13:39.676Z,93.35
2022-11-28T02:14:39.508Z,93.35
2022-11-28T02:15:39.379Z,93.81
2022-11-28T02:16:39.487Z,93.81
2022-11-28T02:17:39.357Z,93.60
2022-11-28T02:18:39.389Z,94.23
2022-11-28T02:19:39.326Z,94.95
2022-11-28T02:20:39.628Z,94.53
2022-11-28T02:21:39.309Z,94.84
2022-11-28T02:22:39.359Z,94.95
2022-11-28T02:23:39.297Z,95.56
2022-11-28T02:24:39.659Z,95.56
2022-11-28T02:25:39.272Z,95.46
2022-11-28T02:26:39.258Z,95.67
2022-11-28T02:27:39.528Z,96.08
2022-11-28T02:28:39.293Z,96.59
2022-11-28T02:29:39.223Z,95.77
2022-11-28T02:30:39.218Z,96.28
2022-11-28T02:31:39.298Z,95.98
2022-11-28T02:32:39.205Z,96.18
2022-11-28T02:33:39.181Z,96.49
2022-11-28T02:34:43.109Z,96.59
2022-11-28T02:35:39.166Z,96.84
2022-11-28T02:36:39.169Z,96.95
2022-11-28T02:37:39.137Z,97.26
2022-11-28T02:38:39.138Z,97.56
2022-11-28T02:39:39.133Z,97.67
2022-11-28T02:40:39.149Z,97.77
2022-11-28T02:41:39.386Z,98.19
2022-11-28T02:42:39.109Z,97.77
2022-11-28T02:43:39.077Z,97.56
2022-11-28T02:44:39.089Z,97.67
2022-11-28T02:45:39.046Z,97.98
2022-11-28T02:46:39.151Z,98.19
2022-11-28T02:47:39.046Z,98.29
2022-11-28T02:48:39.317Z,98.50
2022-11-28T02:49:39.009Z,98.50
2022-11-28T02:50:39.021Z,98.39
2022-11-28T02:51:39.013Z,98.19
2022-11-28T02:52:39.023Z,98.19
2022-11-28T02:53:38.990Z,98.50
2022-11-28T02:54:38.966Z,98.39
2022-11-28T02:55:39.231Z,98.50
2022-11-28T02:56:38.972Z,98.80
2022-11-28T02:57:38.942Z,98.80
2022-11-28T02:58:38.969Z,99.11
2022-11-28T02:59:38.900Z,99.43
2022-11-28T03:00:38.944Z,99.63
2022-11-28T03:01:38.942Z,99.73
2022-11-28T03:02:39.219Z,99.84
2022-11-28T03:03:38.872Z,99.99
2022-11-28T03:04:38.884Z,99.99
2022-11-28T03:05:38.863Z,99.99
2022-11-28T03:06:38.831Z,99.99
2022-11-28T03:07:38.830Z,99.99
2022-11-28T03:08:38.824Z,99.99
2022-11-28T03:09:39.089Z,99.99
2022-11-28T03:10:38.832Z,99.99
2022-11-28T03:11:38.792Z,99.99
2022-11-28T03:12:38.788Z,99.99
2022-11-28T03:13:38.769Z,99.84
2022-11-28T03:14:38.752Z,99.73
2022-11-28T03:15:38.740Z,99.63
2022-11-28T03:16:39.234Z,99.43
2022-11-28T03:17:38.724Z,99.22
2022-11-28T03:18:38.703Z,99.32
2022-11-28T03:19:38.710Z,99.22
2022-11-28T03:20:38.703Z,98.80
2022-11-28T03:21:38.691Z,98.80
2022-11-28T03:22:38.694Z,98.91
2022-11-28T03:23:38.956Z,98.97
2022-11-28T03:24:38.795Z,99.01
2022-11-28T03:25:38.637Z,99.01
2022-11-28T03:26:38.625Z,98.76
2022-11-28T03:27:38.623Z,98.70
2022-11-28T03:28:43.360Z,98.76
2022-11-28T03:29:38.606Z,98.91
2022-11-28T03:30:38.901Z,98.97
2022-11-28T03:31:38.660Z,98.66
2022-11-28T03:32:38.583Z,98.70
2022-11-28T03:33:38.546Z,98.45
2022-11-28T03:34:38.567Z,98.45
2022-11-28T03:35:38.547Z,98.35
2022-11-28T03:36:38.536Z,98.55
2022-11-28T03:37:38.837Z,98.76
2022-11-28T03:38:38.499Z,98.97
2022-11-28T03:39:38.495Z,99.27
2022-11-28T03:40:38.537Z,99.07
2022-11-28T03:41:38.470Z,99.07
2022-11-28T03:42:38.457Z,98.91
2022-11-28T03:43:38.434Z,98.66
2022-11-28T03:44:38.732Z,98.55
2022-11-28T03:45:38.434Z,98.24
2022-11-28T03:46:38.488Z,98.45
2022-11-28T03:47:38.403Z,98.45
2022-11-28T03:48:38.417Z,98.66
2022-11-28T03:49:38.383Z,98.66
2022-11-28T03:50:38.395Z,98.86
2022-11-28T03:51:38.654Z,98.97
2022-11-28T03:52:38.406Z,99.17
2022-11-28T03:53:38.354Z,99.38
2022-11-28T03:54:38.345Z,99.38
2022-11-28T03:55:38.384Z,99.07
2022-11-28T03:56:38.313Z,99.27
2022-11-28T03:57:38.325Z,99.69
2022-11-28T03:58:38.616Z,99.99
2022-11-28T03:59:38.282Z,99.99
2022-11-28T04:00:38.317Z,99.99
2022-11-28T04:01:38.350Z,99.99
2022-11-28T04:02:38.304Z,99.99
2022-11-28T04:03:38.274Z,99.99
2022-11-28T04:04:38.792Z,99.99
2022-11-28T04:05:38.504Z,99.99
2022-11-28T04:06:38.210Z,99.99
2022-11-28T04:07:38.242Z,99.99
2022-11-28T04:08:38.213Z,99.99
2022-11-28T04:09:38.185Z,99.99
2022-11-28T04:10:38.196Z,99.99
2022-11-28T04:11:38.154Z,99.99
2022-11-28T04:12:38.434Z,99.99
2022-11-28T04:13:38.149Z,99.99
2022-11-28T04:14:38.125Z,99.99
2022-11-28T04:15:38.135Z,99.99
2022-11-28T04:16:38.202Z,99.99
2022-11-28T04:17:38.099Z,99.99
2022-11-28T04:18:38.114Z,99.99
2022-11-28T04:19:38.374Z,99.99
2022-11-28T04:20:38.072Z,99.99
2022-11-28T04:21:38.054Z,99.99
2022-11-28T04:22:38.082Z,99.99
2022-11-28T04:23:38.022Z,99.99
2022-11-28T04:24:38.029Z,99.99
2022-11-28T04:25:38.024Z,99.99
2022-11-28T04:26:38.299Z,99.99
2022-11-28T04:27:37.987Z,99.99
2022-11-28T04:28:38.022Z,99.99
2022-11-28T04:29:37.960Z,99.99
2022-11-28T04:30:37.958Z,99.99
2022-11-28T04:31:38.021Z,99.99
2022-11-28T04:32:37.940Z,99.99
2022-11-28T04:33:38.202Z,99.99
2022-11-28T04:34:37.962Z,99.99
2022-11-28T04:35:37.903Z,99.99
2022-11-28T04:36:37.897Z,99.99
2022-11-28T04:37:37.893Z,99.99
2022-11-28T04:38:37.883Z,99.99
2022-11-28T04:39:37.898Z,99.99
2022-11-28T04:40:37.904Z,99.99
2022-11-28T04:41:37.831Z,99.99
2022-11-28T04:42:37.830Z,99.99
2022-11-28T04:43:37.815Z,99.99
2022-11-28T04:44:37.818Z,99.99
2022-11-28T04:45:38.155Z,99.99
2022-11-28T04:46:37.818Z,99.99
2022-11-28T04:47:37.769Z,99.99
2022-11-28T04:48:37.776Z,99.99
2022-11-28T04:49:37.794Z,99.99
2022-11-28T04:50:37.764Z,99.99
2022-11-28T04:51:37.739Z,99.99
2022-11-28T04:52:37.754Z,99.99
2022-11-28T04:53:37.725Z,99.99
2022-11-28T04:54:37.712Z,99.99
2022-11-28T04:55:37.699Z,99.99
2022-11-28T04:56:37.716Z,99.99
2022-11-28T04:57:37.675Z,99.99
2022-11-28T04:58:37.701Z,99.99
2022-11-28T04:59:37.651Z,99.99
2022-11-28T05:00:37.712Z,99.99
2022-11-28T05:01:37.640Z,99.99
2022-11-28T05:02:37.688Z,99.99
2022-11-28T05:03:42.429Z,99.99
2022-11-28T05:04:37.656Z,99.99
2022-11-28T05:05:37.605Z,99.99
2022-11-28T05:06:37.593Z,99.99
2022-11-28T05:07:37.614Z,99.99
2022-11-28T05:08:37.566Z,99.99
2022-11-28T05:09:37.538Z,99.99
2022-11-28T05:10:37.886Z,99.99
2022-11-28T05:11:37.529Z,99.99
2022-11-28T05:12:37.516Z,99.99
2022-11-28T05:13:37.513Z,99.99
2022-11-28T05:14:37.518Z,99.99
2022-11-28T05:15:37.500Z,99.99
2022-11-28T05:16:37.579Z,99.99
2022-11-28T05:17:41.904Z,99.99
2022-11-28T05:18:37.469Z,99.99
2022-11-28T05:19:37.439Z,99.99
2022-11-28T05:20:37.463Z,99.99
2022-11-28T05:21:37.420Z,99.99
2022-11-28T05:22:37.481Z,99.99
2022-11-28T05:23:37.413Z,99.99
2022-11-28T05:24:37.683Z,99.99
2022-11-28T05:25:37.410Z,99.99
2022-11-28T05:26:37.395Z,99.99
2022-11-28T05:27:37.379Z,99.99
2022-11-28T05:28:37.410Z,99.99
2022-11-28T05:29:37.335Z,99.99
2022-11-28T05:30:37.355Z,99.99
2022-11-28T05:31:37.703Z,99.99
2022-11-28T05:32:37.320Z,99.99
2022-11-28T05:33:37.299Z,99.99
2022-11-28T05:34:37.317Z,99.99
2022-11-28T05:35:37.287Z,99.99
2022-11-28T05:36:37.291Z,99.99
2022-11-28T05:37:37.255Z,99.99
2022-11-28T05:38:37.559Z,99.99
2022-11-28T05:39:37.236Z,99.99
2022-11-28T05:40:37.273Z,99.99
2022-11-28T05:41:37.220Z,99.99
2022-11-28T05:42:37.202Z,99.99
2022-11-28T05:43:37.195Z,99.99
2022-11-28T05:44:37.185Z,99.99
2022-11-28T05:45:37.503Z,99.99
2022-11-28T05:46:37.217Z,99.99
2022-11-28T05:47:37.150Z,99.99
2022-11-28T05:48:37.147Z,99.99
2022-11-28T05:49:37.128Z,99.99
2022-11-28T05:50:39.984Z,99.99
2022-11-28T05:51:37.123Z,99.99
2022-11-28T05:52:37.443Z,99.99
2022-11-28T05:53:37.113Z,99.99
2022-11-28T05:54:37.077Z,99.99
2022-11-28T05:55:37.073Z,99.99
2022-11-28T05:56:42.234Z,99.99
2022-11-28T05:57:37.071Z,99.99
2022-11-28T05:58:37.062Z,99.99
2022-11-28T05:59:37.333Z,99.99
2022-11-28T06:00:37.039Z,99.99
2022-11-28T06:01:37.010Z,99.99
2022-11-28T06:02:37.119Z,99.99
2022-11-28T06:03:36.989Z,99.99
2022-11-28T06:04:37.057Z,99.99
2022-11-28T06:05:44.244Z,99.99
2022-11-28T06:06:36.959Z,99.99
2022-11-28T06:07:37.015Z,99.99
2022-11-28T06:08:36.936Z,99.99
2022-11-28T06:09:36.925Z,99.99
2022-11-28T06:10:36.951Z,99.99
2022-11-28T06:11:36.914Z,99.99
2022-11-28T06:12:37.180Z,99.99
2022-11-28T06:13:36.889Z,99.99
2022-11-28T06:14:36.876Z,99.99
2022-11-28T06:15:38.441Z,99.99
2022-11-28T06:16:36.928Z,99.99
2022-11-28T06:17:36.849Z,99.99
2022-11-28T06:18:36.833Z,99.99
2022-11-28T06:19:37.112Z,99.99
2022-11-28T06:20:36.812Z,99.99
2022-11-28T06:21:36.801Z,99.99
2022-11-28T06:22:36.836Z,99.99
2022-11-28T06:23:36.811Z,99.99
2022-11-28T06:24:36.770Z,99.99
2022-11-28T06:25:36.779Z,99.99
2022-11-28T06:26:37.067Z,99.99
2022-11-28T06:27:36.760Z,99.99
2022-11-28T06:28:36.806Z,99.99
2022-11-28T06:29:36.737Z,99.99
2022-11-28T06:30:36.733Z,99.99
2022-11-28T06:31:36.746Z,99.99
2022-11-28T06:32:36.709Z,99.99
2022-11-28T06:33:36.692Z,99.99
2022-11-28T06:34:36.696Z,99.99
2022-11-28T06:35:36.666Z,99.99
2022-11-28T06:36:36.643Z,99.99
2022-11-28T06:37:36.645Z,99.99
2022-11-28T06:38:36.920Z,99.99
2022-11-28T06:39:36.624Z,99.99
2022-11-28T06:40:36.636Z,99.99
2022-11-28T06:41:36.588Z,99.99
2022-11-28T06:42:36.597Z,99.99
2022-11-28T06:43:36.576Z,99.99
2022-11-28T06:44:36.561Z,99.99
2022-11-28T06:45:36.643Z,99.99
2022-11-28T06:46:36.580Z,99.99
2022-11-28T06:47:36.570Z,99.99
2022-11-28T06:48:36.520Z,99.99
2022-11-28T06:49:36.517Z,99.99
2022-11-28T06:50:36.782Z,99.99
2022-11-28T06:51:36.508Z,99.99
2022-11-28T06:52:36.520Z,99.99
2022-11-28T06:53:36.469Z,99.99
2022-11-28T06:54:36.462Z,99.99
2022-11-28T06:55:36.451Z,99.99
2022-11-28T06:56:36.501Z,99.99
2022-11-28T06:57:36.730Z,99.99
2022-11-28T06:58:36.454Z,99.99
2022-11-28T06:59:36.424Z,99.99
2022-11-28T07:00:36.392Z,99.99
2022-11-28T07:01:36.417Z,99.99
2022-11-28T07:02:36.432Z,99.99
2022-11-28T07:03:36.368Z,99.99
2022-11-28T07:04:36.676Z,99.99
2022-11-28T07:05:36.355Z,99.99
2022-11-28T07:06:36.333Z,99.99
2022-11-28T07:07:45.814Z,99.99
2022-11-28T07:08:36.324Z,99.99
2022-11-28T07:09:36.322Z,99.99
2022-11-28T07:10:36.336Z,99.99
2022-11-28T07:11:36.291Z,99.99
2022-11-28T07:12:36.284Z,99.99
2022-11-28T07:13:36.279Z,99.99
2022-11-28T07:14:36.246Z,99.99
2022-11-28T07:15:36.264Z,99.99
2022-11-28T07:16:36.317Z,99.99
2022-11-28T07:17:36.560Z,99.99
2022-11-28T07:18:36.213Z,99.99
2022-11-28T07:19:36.198Z,99.99
2022-11-28T07:20:36.194Z,99.99
2022-11-28T07:21:36.178Z,99.99
2022-11-28T07:22:36.215Z,99.99
2022-11-28T07:23:36.181Z,99.99
2022-11-28T07:24:36.438Z,99.99
2022-11-28T07:25:36.154Z,99.99
2022-11-28T07:26:36.127Z,99.99
2022-11-28T07:27:36.119Z,99.99
2022-11-28T07:28:36.159Z,99.99
2022-11-28T07:29:36.101Z,99.99
2022-11-28T07:30:36.113Z,99.99
2022-11-28T07:31:36.388Z,99.99
2022-11-28T07:32:36.060Z,99.99
2022-11-28T07:33:36.068Z,99.99
2022-11-28T07:34:36.078Z,99.99
2022-11-28T07:35:36.035Z,99.99
2022-11-28T07:36:36.016Z,99.99
2022-11-28T07:37:36.010Z,99.99
2022-11-28T07:38:36.301Z,99.99
2022-11-28T07:39:35.988Z,99.99
2022-11-28T07:40:36.026Z,99.99
2022-11-28T07:41:35.974Z,99.99
2022-11-28T07:42:35.976Z,99.99
2022-11-28T07:43:35.949Z,99.99
2022-11-28T07:44:35.962Z,99.99
2022-11-28T07:45:58.954Z,99.99
2022-11-28T07:46:36.052Z,99.99
2022-11-28T07:47:35.920Z,99.99
2022-11-28T07:48:35.908Z,99.99
2022-11-28T07:49:35.894Z,99.99
2022-11-28T07:50:35.881Z,99.99
2022-11-28T07:51:35.891Z,99.99
2022-11-28T07:52:37.216Z,99.99
2022-11-28T07:53:35.868Z,99.99
2022-11-28T07:54:35.835Z,99.99
2022-11-28T07:55:35.854Z,99.99
2022-11-28T07:57:04.534Z,99.99
2022-11-28T07:57:35.820Z,99.99
2022-11-28T07:58:35.840Z,99.99
2022-11-28T07:59:36.092Z,99.99
2022-11-28T08:00:35.779Z,99.99
2022-11-28T08:01:35.836Z,99.99
2022-11-28T08:02:35.776Z,99.99
2022-11-28T08:03:35.758Z,99.99
2022-11-28T08:04:35.846Z,99.99
2022-11-28T08:05:35.752Z,99.99
2022-11-28T08:06:36.012Z,99.99
2022-11-28T08:07:35.792Z,99.99
2022-11-28T08:08:35.789Z,99.99
2022-11-28T08:09:35.684Z,99.99
2022-11-28T08:10:35.711Z,99.99
2022-11-28T08:11:35.695Z,99.99
2022-11-28T08:12:35.686Z,99.99
2022-11-28T08:13:35.960Z,99.99
2022-11-28T08:14:35.674Z,99.99
2022-11-28T08:15:35.668Z,99.99
2022-11-28T08:16:35.700Z,99.99
2022-11-28T08:17:35.617Z,99.99
2022-11-28T08:18:35.593Z,99.99
2022-11-28T08:19:35.684Z,99.99
2022-11-28T08:20:35.882Z,99.99
2022-11-28T08:21:35.591Z,99.99
2022-11-28T08:22:35.596Z,99.99
2022-11-28T08:23:35.545Z,99.99
2022-11-28T08:24:35.559Z,99.99
2022-11-28T08:25:35.515Z,99.99
2022-11-28T08:26:35.502Z,99.99
2022-11-28T08:27:35.825Z,99.99
2022-11-28T08:28:35.517Z,99.99
2022-11-28T08:29:35.489Z,99.99
2022-11-28T08:30:35.512Z,99.99
2022-11-28T08:31:35.497Z,99.99
2022-11-28T08:32:35.497Z,99.99
2022-11-28T08:33:35.458Z,99.99
2022-11-28T08:34:35.757Z,99.99
2022-11-28T08:35:35.428Z,99.99
2022-11-28T08:36:35.405Z,99.99
2022-11-28T08:37:35.423Z,99.99
2022-11-28T08:38:35.400Z,99.99
2022-11-28T08:39:35.390Z,99.99
2022-11-28T08:40:35.425Z,99.99
2022-11-28T08:41:35.635Z,99.99
2022-11-28T08:42:35.351Z,99.99
2022-11-28T08:43:35.345Z,99.99
2022-11-28T08:44:35.326Z,99.99
2022-11-28T08:45:35.417Z,99.99
2022-11-28T08:46:35.375Z,99.99
2022-11-28T08:47:35.292Z,99.99
2022-11-28T08:48:35.567Z,99.99
2022-11-28T08:49:35.266Z,99.99
2022-11-28T08:50:35.261Z,99.99
2022-11-28T08:51:35.270Z,99.99
2022-11-28T08:52:35.260Z,99.99
2022-11-28T08:53:35.244Z,99.99
2022-11-28T08:54:35.228Z,99.99
2022-11-28T08:55:40.486Z,99.99
2022-11-28T08:56:35.229Z,99.99
2022-11-28T08:57:35.176Z,99.99
2022-11-28T08:58:35.224Z,99.99
2022-11-28T08:59:35.191Z,99.99
2022-11-28T09:00:35.160Z,99.99
2022-11-28T09:01:35.271Z,99.99
2022-11-28T09:02:35.449Z,99.99
2022-11-28T09:03:35.185Z,99.99
2022-11-28T09:04:35.203Z,99.99
2022-11-28T09:05:35.181Z,99.99
2022-11-28T09:06:35.092Z,99.99
2022-11-28T09:07:35.146Z,99.99
2022-11-28T09:08:35.091Z,99.99
2022-11-28T09:09:35.349Z,99.99
2022-11-28T09:10:35.076Z,99.99
2022-11-28T09:11:35.089Z,99.99
2022-11-28T09:12:35.046Z,99.99
2022-11-28T09:13:35.044Z,99.99
2022-11-28T09:14:35.029Z,99.99
2022-11-28T09:15:35.040Z,99.99
2022-11-28T09:16:35.308Z,99.99
2022-11-28T09:17:35.030Z,99.99
2022-11-28T09:18:35.023Z,99.99
2022-11-28T09:19:34.971Z,99.99
2022-11-28T09:20:34.961Z,99.99
2022-11-28T09:21:34.969Z,99.99
2022-11-28T09:22:34.978Z,99.99
2022-11-28T09:23:35.253Z,99.99
2022-11-28T09:24:34.904Z,99.99
2022-11-28T09:25:34.899Z,99.99
2022-11-28T09:26:34.954Z,99.99
2022-11-28T09:27:34.917Z,99.99
2022-11-28T09:28:34.914Z,99.99
2022-11-28T09:29:34.905Z,99.99
2022-11-28T09:30:34.987Z,99.99
2022-11-28T09:31:34.932Z,99.99
2022-11-28T09:32:34.824Z,99.99
2022-11-28T09:33:34.840Z,99.99
2022-11-28T09:34:35.174Z,99.99
2022-11-28T09:35:34.821Z,99.99
2022-11-28T09:36:34.782Z,99.99
2022-11-28T09:37:34.769Z,99.99
2022-11-28T09:38:34.798Z,99.99
2022-11-28T09:39:44.270Z,99.99
2022-11-28T09:40:34.808Z,99.99
2022-11-28T09:41:34.850Z,99.99
2022-11-28T09:42:34.761Z,99.99
2022-11-28T09:43:34.735Z,99.99
2022-11-28T09:44:34.695Z,99.99
2022-11-28T09:45:34.755Z,99.99
2022-11-28T09:46:35.045Z,99.99
2022-11-28T09:47:34.735Z,99.99
2022-11-28T09:48:34.695Z,99.99
2022-11-28T09:49:40.373Z,99.99
2022-11-28T09:50:34.673Z,99.99
2022-11-28T09:51:34.669Z,99.99
2022-11-28T09:52:34.762Z,99.85
2022-11-28T09:53:34.672Z,99.95
2022-11-28T09:54:34.623Z,99.95
2022-11-28T09:55:34.646Z,99.85
2022-11-28T09:56:34.574Z,99.99
2022-11-28T09:57:34.588Z,99.95
2022-11-28T09:58:34.638Z,99.74
2022-11-28T09:59:34.836Z,98.50
2022-11-28T10:00:34.568Z,98.20
2022-11-28T10:01:34.527Z,97.58
2022-11-28T10:02:34.588Z,97.23
2022-11-28T10:03:34.544Z,97.43
2022-11-28T10:04:34.636Z,97.02
2022-11-28T10:05:34.501Z,96.41
2022-11-28T10:06:34.787Z,95.99
2022-11-28T10:07:34.528Z,95.78
2022-11-28T10:08:34.537Z,96.09
2022-11-28T10:09:34.446Z,95.68
2022-11-28T10:10:34.483Z,95.17
2022-11-28T10:11:34.451Z,95.48
2022-11-28T10:12:34.436Z,96.41
2022-11-28T10:13:59.883Z,94.96
2022-11-28T10:14:34.440Z,95.37
2022-11-28T10:15:34.394Z,95.48
2022-11-28T10:16:34.541Z,95.78
2022-11-28T10:17:34.365Z,95.58
2022-11-28T10:18:34.374Z,95.58
2022-11-28T10:20:34.351Z,95.74
2022-11-28T10:21:34.328Z,95.53
2022-11-28T10:22:34.354Z,95.64
2022-11-28T10:23:34.352Z,95.43
2022-11-28T10:24:34.303Z,95.33
2022-11-28T10:25:34.306Z,95.12
2022-11-28T10:26:34.279Z,95.43
2022-11-28T10:27:34.293Z,94.92
2022-11-28T10:28:34.312Z,95.12
2022-11-28T10:29:34.235Z,94.81
2022-11-28T10:30:34.402Z,94.20
2022-11-28T10:31:34.318Z,94.51
2022-11-28T10:32:34.228Z,94.60
2022-11-28T10:33:34.222Z,94.51
2022-11-28T10:34:34.253Z,94.51
2022-11-28T10:35:34.232Z,93.79
2022-11-28T10:36:34.182Z,94.71
2022-11-28T10:37:34.190Z,94.20
2022-11-28T10:38:34.227Z,93.58
2022-11-28T10:39:34.172Z,93.88
2022-11-28T10:40:34.228Z,94.20
2022-11-28T10:41:34.116Z,94.71
2022-11-28T10:42:34.166Z,95.23
2022-11-28T10:43:34.110Z,94.81
2022-11-28T10:44:34.143Z,95.53
2022-11-28T10:45:34.086Z,95.23
2022-11-28T10:46:34.197Z,95.12
2022-11-28T10:47:34.071Z,94.30
2022-11-28T10:48:41.580Z,93.99
2022-11-28T10:49:34.072Z,93.88
2022-11-28T10:50:34.369Z,94.56
2022-11-28T10:51:34.029Z,94.46
2022-11-28T10:52:34.081Z,94.15
2022-11-28T10:53:34.038Z,94.05
2022-11-28T10:54:33.988Z,93.84
2022-11-28T10:55:34.005Z,93.54
2022-11-28T10:56:34.059Z,93.84
2022-11-28T10:57:34.285Z,93.33
2022-11-28T10:58:34.036Z,93.64
2022-11-28T10:59:33.956Z,93.95
2022-11-28T11:00:33.919Z,93.33
2022-11-28T11:01:33.965Z,93.74
2022-11-28T11:02:33.953Z,94.05
2022-11-28T11:03:33.895Z,93.95
2022-11-28T11:04:34.247Z,94.26
2022-11-28T11:05:33.862Z,93.95
2022-11-28T11:06:41.905Z,93.84
2022-11-28T11:07:33.944Z,94.77
2022-11-28T11:08:33.885Z,95.39
2022-11-28T11:09:33.856Z,94.26
2022-11-28T11:10:33.849Z,93.84
2022-11-28T11:11:34.103Z,93.43
2022-11-28T11:12:33.856Z,93.54
2022-11-28T11:13:33.794Z,93.33
2022-11-28T11:14:33.842Z,93.02
2022-11-28T11:15:33.878Z,93.02
2022-11-28T11:16:33.859Z,93.84
2022-11-28T11:17:36.184Z,94.15
2022-11-28T11:18:33.790Z,94.05
2022-11-28T11:19:33.790Z,93.43
2022-11-28T11:20:33.728Z,93.23
2022-11-28T11:21:33.763Z,94.15
2022-11-28T11:22:33.794Z,93.33
2022-11-28T11:23:38.047Z,93.43
2022-11-28T11:24:33.699Z,93.23
2022-11-28T11:25:33.719Z,93.84
2022-11-28T11:26:33.769Z,92.82
2022-11-28T11:27:33.631Z,93.33
2022-11-28T11:28:33.825Z,93.43
2022-11-28T11:29:33.669Z,94.01
2022-11-28T11:30:33.695Z,94.62
2022-11-28T11:31:33.668Z,94.62
2022-11-28T11:32:33.629Z,95.03
2022-11-28T11:33:33.642Z,95.14
2022-11-28T11:34:33.651Z,95.34
2022-11-28T11:35:33.593Z,95.86
2022-11-28T11:36:33.936Z,95.18
2022-11-28T11:37:33.564Z,95.08
2022-11-28T11:38:37.808Z,95.18
2022-11-28T11:39:33.601Z,95.39
2022-11-28T11:40:33.615Z,92.92
2022-11-28T11:41:33.519Z,94.05
2022-11-28T11:42:33.556Z,95.08
2022-11-28T11:43:33.646Z,94.36
2022-11-28T11:44:33.581Z,95.08
2022-11-28T11:45:33.529Z,95.70
2022-11-28T11:46:33.595Z,96.00
2022-11-28T11:47:33.524Z,96.11
2022-11-28T11:48:33.805Z,95.08
2022-11-28T11:49:33.449Z,94.67
2022-11-28T11:50:33.454Z,95.80
2022-11-28T11:51:38.097Z,96.31
2022-11-28T11:52:33.501Z,96.62
2022-11-28T11:53:33.405Z,95.49
2022-11-28T11:54:33.398Z,94.77
2022-11-28T11:55:33.421Z,95.08
2022-11-28T11:56:33.434Z,95.08
2022-11-28T11:57:34.405Z,96.21
2022-11-28T11:58:33.411Z,96.31
2022-11-28T11:59:33.323Z,96.52
2022-11-28T12:00:33.337Z,95.28
2022-11-28T12:01:33.300Z,95.39
2022-11-28T12:02:33.539Z,95.39
2022-11-28T12:03:33.785Z,96.11
2022-11-28T12:04:52.611Z,96.42
2022-11-28T12:05:46.662Z,96.72
2022-11-28T12:06:33.269Z,96.93
2022-11-28T12:07:33.313Z,96.83
2022-11-28T12:08:33.247Z,96.42
2022-11-28T12:09:33.225Z,96.42
2022-11-28T12:10:33.409Z,96.21
2022-11-28T12:11:33.210Z,95.49
2022-11-28T12:12:33.488Z,95.70
2022-11-28T12:13:33.174Z,96.00
2022-11-28T12:14:33.252Z,95.90
2022-11-28T12:15:33.163Z,96.21
2022-11-28T12:16:33.253Z,96.11
2022-11-28T12:17:48.460Z,96.31
2022-11-28T12:18:34.347Z,96.42
2022-11-28T12:19:33.143Z,96.42
2022-11-28T12:20:33.108Z,95.80
2022-11-28T12:21:33.157Z,96.21
2022-11-28T12:22:33.156Z,96.00
2022-11-28T12:23:33.113Z,96.42
2022-11-28T12:24:33.403Z,96.93
2022-11-28T12:25:33.098Z,97.03
2022-11-28T12:26:33.046Z,96.93
2022-11-28T12:27:33.177Z,96.42
2022-11-28T12:28:33.103Z,96.42
2022-11-28T12:29:33.071Z,96.72
2022-11-28T12:30:33.012Z,96.72
2022-11-28T12:31:33.113Z,96.89
2022-11-28T12:32:33.066Z,96.68
2022-11-28T12:33:33.085Z,96.89
2022-11-28T12:34:33.068Z,96.58
2022-11-28T12:35:32.973Z,97.09
2022-11-28T12:36:33.276Z,97.71
2022-11-28T12:37:54.764Z,97.81
2022-11-28T12:38:32.942Z,97.71
2022-11-28T12:39:32.957Z,97.19
2022-11-28T12:40:33.004Z,96.89
2022-11-28T12:41:33.048Z,96.89
2022-11-28T12:42:32.947Z,97.19
2022-11-28T12:43:32.845Z,97.71
2022-11-28T12:44:32.937Z,97.81
2022-11-28T12:45:32.899Z,97.09
2022-11-28T12:46:33.049Z,96.99
2022-11-28T12:47:32.843Z,97.91
2022-11-28T12:48:32.825Z,97.71
2022-11-28T12:49:32.811Z,98.02
2022-11-28T12:50:32.831Z,97.91
2022-11-28T12:51:32.778Z,98.02
2022-11-28T12:52:32.887Z,97.91
2022-11-28T12:53:32.798Z,98.02